Time;durP1;ratioP1;P1;durP2;ratioP2;P2;SDS_P1;SDS_P2;PMS_P1;PMS_P2;Temp;Humidity;BMP_temperature;BMP_pressure;BME280_temperature;BME280_humidity;BME280_pressure;Samples;Min_cycle;Max_cycle;Signal;HPM_P1;HPM_P2
2021/12/21 00:00:54;;;;;;;13.23;3.80;;;1.70;99.90;;;;;;5021721;28;20109;-80
2021/12/21 00:03:19;;;;;;;12.98;3.80;;;1.70;99.90;;;;;;5021461;28;20029;-80
2021/12/21 00:05:45;;;;;;;10.65;3.50;;;1.90;99.90;;;;;;5020505;28;20442;-79
2021/12/21 00:08:12;;;;;;;9.80;3.67;;;1.80;99.90;;;;;;5024296;28;20097;-80
2021/12/21 00:10:42;;;;;;;10.43;4.40;;;1.90;99.90;;;;;;5020245;28;20132;-79
2021/12/21 00:13:21;;;;;;;11.37;3.63;;;1.90;99.90;;;;;;5021228;28;20037;-78
2021/12/21 00:18:43;;;;;;;10.32;4.18;;;1.80;99.90;;;;;;5020960;28;20551;-80
2021/12/21 00:23:58;;;;;;;11.30;3.40;;;1.90;99.90;;;;;;5024754;28;20565;-78
2021/12/21 00:26:23;;;;;;;13.98;3.75;;;1.90;99.90;;;;;;5028493;28;20041;-80
2021/12/21 00:31:16;;;;;;;13.25;3.10;;;1.80;99.90;;;;;;5026910;28;20034;-79
2021/12/21 00:33:45;;;;;;;9.63;2.70;;;;;;;;;;5023833;28;20093;-80
2021/12/21 00:36:12;;;;;;;11.27;2.85;;;1.80;99.90;;;;;;5028261;28;20025;-79
2021/12/21 00:38:38;;;;;;;12.93;3.25;;;;;;;;;;5023233;28;20060;-79
2021/12/21 00:41:04;;;;;;;10.35;3.25;;;;;;;;;;5028579;28;20042;-79
2021/12/21 00:43:30;;;;;;;11.35;3.00;;;;;;;;;;5021235;28;20033;-78
2021/12/21 00:45:56;;;;;;;9.20;3.03;;;1.60;99.90;;;;;;5024156;28;20492;-79
2021/12/21 00:48:27;;;;;;;8.93;2.72;;;1.80;99.90;;;;;;5028823;28;20049;-78
2021/12/21 00:50:53;;;;;;;8.75;2.88;;;;;;;;;;5029874;28;20029;-79
2021/12/21 00:53:19;;;;;;;6.18;2.60;;;;;;;;;;5027603;28;20028;-79
2021/12/21 00:55:45;;;;;;;10.65;2.92;;;;;;;;;;5028109;28;20600;-78
2021/12/21 00:58:12;;;;;;;9.55;2.90;;;1.80;99.90;;;;;;5027796;28;20037;-79
2021/12/21 01:00:39;;;;;;;8.60;3.13;;;1.80;99.90;;;;;;5034606;28;20021;-79
2021/12/21 01:03:09;;;;;;;12.68;3.92;;;1.80;99.90;;;;;;5021020;28;20021;-79
2021/12/21 01:05:49;;;;;;;10.38;2.97;;;1.70;99.90;;;;;;5023616;28;20116;-78
2021/12/21 01:08:20;;;;;;;11.07;3.20;;;1.80;99.90;;;;;;5028107;28;20538;-80
2021/12/21 01:18:55;;;;;;;8.13;3.03;;;1.50;99.90;;;;;;5021818;28;20383;-80
2021/12/21 01:21:26;;;;;;;12.10;3.70;;;1.30;99.90;;;;;;5026407;28;20112;-81
2021/12/21 01:24:17;;;;;;;13.18;3.28;;;1.30;99.90;;;;;;5029238;28;20022;-79
2021/12/21 01:29:28;;;;;;;10.13;2.65;;;1.30;99.90;;;;;;5026793;28;20026;-80
2021/12/21 01:34:58;;;;;;;8.68;2.83;;;1.10;99.90;;;;;;5026049;28;20763;-79
2021/12/21 01:43:06;;;;;;;11.15;3.38;;;;;;;;;;5026829;28;20088;-79
2021/12/21 01:50:57;;;;;;;7.30;3.17;;;1.40;99.90;;;;;;5028159;28;20396;-77
2021/12/21 01:53:23;;;;;;;7.57;2.80;;;1.30;99.90;;;;;;5021690;28;20275;-78
2021/12/21 01:55:49;;;;;;;8.27;3.53;;;1.40;99.90;;;;;;5024180;28;20026;-79
2021/12/21 01:58:15;;;;;;;10.45;3.40;;;1.30;99.90;;;;;;5022765;28;20025;-80
2021/12/21 02:00:41;;;;;;;10.65;2.90;;;1.20;99.90;;;;;;5026577;28;20021;-78
2021/12/21 02:03:07;;;;;;;8.82;3.22;;;1.80;99.90;;;;;;5029074;28;20037;-78
2021/12/21 02:05:33;;;;;;;12.23;3.17;;;1.20;99.90;;;;;;5023025;28;20034;-79
2021/12/21 02:07:59;;;;;;;6.80;3.38;;;1.30;99.90;;;;;;5028235;28;20033;-78
2021/12/21 02:10:25;;;;;;;7.45;2.80;;;1.20;99.90;;;;;;5030354;28;20040;-79
2021/12/21 02:12:50;;;;;;;9.45;2.80;;;1.30;99.90;;;;;;5024561;28;20403;-79
2021/12/21 02:15:17;;;;;;;8.68;2.90;;;;;;;;;;5030791;28;20522;-78
2021/12/21 02:20:38;;;;;;;8.90;2.90;;;1.10;99.90;;;;;;5022631;28;20037;-80
2021/12/21 02:23:06;;;;;;;10.82;3.25;;;1.00;99.90;;;;;;5028574;28;20022;-79
2021/12/21 02:30:48;;;;;;;6.82;2.95;;;1.20;99.90;;;;;;5024175;28;20057;-81
2021/12/21 02:33:14;;;;;;;11.48;3.65;;;;;;;;;;5029289;28;20506;-80
2021/12/21 02:35:41;;;;;;;7.43;3.17;;;1.00;99.90;;;;;;5026431;28;20037;-78
2021/12/21 02:38:07;;;;;;;6.70;2.90;;;1.20;99.90;;;;;;5028563;28;20483;-79
2021/12/21 02:40:34;;;;;;;9.38;3.20;;;1.00;99.90;;;;;;5043380;28;20053;-80
2021/12/21 02:43:00;;;;;;;9.73;3.22;;;1.00;99.90;;;;;;5045949;28;20025;-79
2021/12/21 02:45:26;;;;;;;10.77;3.50;;;;;;;;;;5041264;28;20024;-80
2021/12/21 02:47:52;;;;;;;10.35;3.13;;;1.10;99.90;;;;;;5041429;28;20034;-81
2021/12/21 02:50:18;;;;;;;9.43;2.88;;;;;;;;;;5030475;28;20470;-80
2021/12/21 02:52:46;;;;;;;10.65;3.08;;;;;;;;;;5027331;28;20037;-79
2021/12/21 02:55:13;;;;;;;12.52;3.85;;;1.10;99.90;;;;;;5040493;28;20034;-82
2021/12/21 02:57:39;;;;;;;14.75;3.75;;;1.10;99.90;;;;;;5024216;28;20040;-78
2021/12/21 03:00:07;;;;;;;7.20;2.80;;;1.00;99.90;;;;;;5022712;28;20450;-79
2021/12/21 03:02:33;;;;;;;8.75;3.00;;;1.00;99.90;;;;;;5026031;28;20037;-79
2021/12/21 03:04:59;;;;;;;11.68;4.05;;;1.00;99.90;;;;;;5023357;28;20103;-80
2021/12/21 03:10:08;;;;;;;9.25;3.25;;;0.90;99.90;;;;;;5023377;28;20038;-79
2021/12/21 03:15:23;;;;;;;6.35;3.30;;;1.10;99.90;;;;;;5025064;28;20045;-78
2021/12/21 03:17:50;;;;;;;6.68;3.50;;;1.00;99.90;;;;;;5023598;28;20033;-79
2021/12/21 03:20:17;;;;;;;10.90;3.08;;;1.00;99.90;;;;;;5025657;28;20068;-79
2021/12/21 03:22:42;;;;;;;8.45;2.80;;;0.90;99.90;;;;;;5027120;28;20168;-79
2021/12/21 03:25:09;;;;;;;11.10;3.78;;;0.70;99.90;;;;;;5028468;28;20079;-78
2021/12/21 03:27:34;;;;;;;6.97;3.17;;;1.00;99.90;;;;;;5027124;28;20037;-78
2021/12/21 03:30:04;;;;;;;14.48;3.80;;;0.80;99.90;;;;;;5025218;28;20549;-80
2021/12/21 03:32:29;;;;;;;7.13;3.17;;;;;;;;;;5024410;28;20025;-80
2021/12/21 03:34:55;;;;;;;9.52;2.97;;;0.80;99.90;;;;;;5025635;28;20614;-79
2021/12/21 03:37:21;;;;;;;10.07;3.53;;;0.90;99.90;;;;;;5023859;28;20033;-79
2021/12/21 03:39:46;;;;;;;9.98;3.53;;;0.80;99.90;;;;;;5026950;28;20033;-80
2021/12/21 03:42:14;;;;;;;9.18;3.13;;;0.70;99.90;;;;;;5028437;28;20514;-82
2021/12/21 03:44:40;;;;;;;11.05;3.45;;;0.70;99.90;;;;;;5024357;28;20159;-80
2021/12/21 03:47:10;;;;;;;10.48;3.40;;;0.70;99.90;;;;;;5024010;28;20112;-78
2021/12/21 03:52:17;;;;;;;6.93;3.65;;;0.60;99.90;;;;;;5030143;28;20049;-79
2021/12/21 03:54:47;;;;;;;9.00;3.15;;;0.60;99.90;;;;;;5023493;28;20051;-78
2021/12/21 03:57:15;;;;;;;7.47;3.13;;;0.60;99.90;;;;;;5025450;28;20018;-78
2021/12/21 03:59:42;;;;;;;10.40;3.75;;;0.80;99.90;;;;;;5029070;28;21922;-79
2021/12/21 04:02:08;;;;;;;10.30;3.28;;;;;;;;;;5026899;28;20871;-79
2021/12/21 04:04:34;;;;;;;10.32;3.10;;;0.50;99.90;;;;;;5029607;28;20037;-79
2021/12/21 04:07:00;;;;;;;9.43;2.95;;;0.50;99.90;;;;;;5032341;28;20503;-78
2021/12/21 04:09:26;;;;;;;8.07;3.05;;;;;;;;;;5029619;28;20021;-77
2021/12/21 04:11:52;;;;;;;11.45;3.55;;;0.60;99.90;;;;;;5027673;28;20025;-79
2021/12/21 04:14:18;;;;;;;8.68;3.33;;;0.50;99.90;;;;;;5034073;28;20541;-80
2021/12/21 04:16:44;;;;;;;12.77;3.75;;;0.30;99.90;;;;;;5024660;28;20511;-80
2021/12/21 04:19:11;;;;;;;12.38;4.75;;;0.50;99.90;;;;;;5030003;28;20040;-78
2021/12/21 04:21:36;;;;;;;12.60;4.25;;;0.60;99.90;;;;;;5025986;28;20030;-79
2021/12/21 04:24:02;;;;;;;10.23;3.83;;;;;;;;;;5033473;28;20030;-78
2021/12/21 04:26:28;;;;;;;11.43;3.78;;;0.50;99.90;;;;;;5032377;28;20593;-80
2021/12/21 04:28:53;;;;;;;10.32;3.28;;;0.50;99.90;;;;;;5028580;28;20089;-79
2021/12/21 04:31:19;;;;;;;15.05;3.85;;;0.50;99.90;;;;;;5031883;28;20730;-79
2021/12/21 04:33:45;;;;;;;6.53;3.13;;;0.40;99.90;;;;;;5029327;28;20048;-79
2021/12/21 04:36:12;;;;;;;9.60;3.30;;;0.50;99.90;;;;;;5025014;28;20064;-80
2021/12/21 04:38:41;;;;;;;9.20;3.42;;;0.40;99.90;;;;;;5029970;28;20037;-78
2021/12/21 04:41:14;;;;;;;6.85;2.90;;;0.40;99.90;;;;;;5026458;28;20112;-79
2021/12/21 04:43:41;;;;;;;7.50;2.95;;;0.50;99.90;;;;;;5026521;28;20018;-79
2021/12/21 04:46:07;;;;;;;6.80;3.05;;;0.50;99.90;;;;;;5027296;28;20036;-77
2021/12/21 04:48:33;;;;;;;8.68;3.40;;;0.40;99.90;;;;;;5026830;28;20055;-78
2021/12/21 04:50:59;;;;;;;11.75;3.30;;;0.40;99.90;;;;;;5029084;28;21288;-83
2021/12/21 04:53:25;;;;;;;10.00;2.92;;;0.40;99.90;;;;;;5027686;28;20032;-77
2021/12/21 04:55:52;;;;;;;10.57;3.42;;;0.40;99.90;;;;;;5030631;28;20708;-80
2021/12/21 04:58:18;;;;;;;11.27;3.72;;;0.40;99.90;;;;;;5028043;28;20026;-80
2021/12/21 05:00:44;;;;;;;8.15;3.13;;;0.40;99.90;;;;;;5027267;28;20719;-78
2021/12/21 05:03:10;;;;;;;10.50;3.30;;;;;;;;;;5028438;28;20042;-79
2021/12/21 05:05:37;;;;;;;13.85;3.15;;;0.40;99.90;;;;;;5026581;28;20017;-78
2021/12/21 05:08:22;;;;;;;6.47;3.05;;;;;;;;;;5027376;28;20490;-79
2021/12/21 05:10:51;;;;;;;13.38;3.20;;;0.30;99.90;;;;;;5027882;28;20053;-79
2021/12/21 05:13:19;;;;;;;6.75;3.35;;;0.40;99.90;;;;;;5030573;28;20013;-80
2021/12/21 05:15:45;;;;;;;10.55;3.10;;;0.30;99.90;;;;;;5043277;28;20160;-79
2021/12/21 05:18:12;;;;;;;9.00;3.10;;;0.30;99.90;;;;;;5026488;28;20029;-78
2021/12/21 05:20:39;;;;;;;9.57;3.08;;;0.30;99.90;;;;;;5031697;28;20038;-79
2021/12/21 05:23:05;;;;;;;10.65;3.05;;;0.30;99.90;;;;;;5032855;28;20462;-78
2021/12/21 05:25:31;;;;;;;10.80;3.60;;;0.40;99.90;;;;;;5039107;28;20030;-81
2021/12/21 05:27:57;;;;;;;10.35;3.40;;;0.40;99.90;;;;;;5026912;28;20075;-79
2021/12/21 05:30:23;;;;;;;11.57;2.75;;;;;;;;;;5028230;28;20037;-78
2021/12/21 05:32:50;;;;;;;8.60;3.15;;;0.40;99.90;;;;;;5027319;28;20033;-80
2021/12/21 05:35:16;;;;;;;8.20;3.05;;;0.40;99.90;;;;;;5029521;28;20112;-79
2021/12/21 05:37:42;;;;;;;7.80;3.53;;;0.40;99.90;;;;;;5028622;28;20107;-79
2021/12/21 05:40:15;;;;;;;7.88;3.53;;;0.30;99.90;;;;;;5027003;28;20037;-80
2021/12/21 05:42:42;;;;;;;10.55;3.33;;;0.30;99.90;;;;;;5028394;28;20527;-79
2021/12/21 05:45:10;;;;;;;10.60;3.45;;;0.30;99.90;;;;;;5029223;28;20033;-80
2021/12/21 05:47:36;;;;;;;9.10;3.00;;;;;;;;;;5029816;28;20045;-79
2021/12/21 05:50:04;;;;;;;8.45;2.85;;;0.40;99.90;;;;;;5031102;28;20057;-79
2021/12/21 05:52:30;;;;;;;9.23;3.28;;;0.30;99.90;;;;;;5035516;28;20132;-79
2021/12/21 05:54:56;;;;;;;8.38;3.17;;;0.30;99.90;;;;;;5026162;28;20128;-78
2021/12/21 05:57:22;;;;;;;5.70;2.88;;;0.40;99.90;;;;;;5032911;28;20022;-78
2021/12/21 05:59:47;;;;;;;5.70;2.88;;;0.30;99.90;;;;;;5027592;28;20089;-79
2021/12/21 06:02:13;;;;;;;7.78;3.53;;;;;;;;;;5024522;28;20043;-79
2021/12/21 06:04:39;;;;;;;8.90;3.15;;;0.30;99.90;;;;;;5020150;28;20611;-79
2021/12/21 06:07:04;;;;;;;7.72;3.13;;;0.30;99.90;;;;;;5030079;28;20033;-78
2021/12/21 06:09:31;;;;;;;7.15;3.33;;;0.40;99.90;;;;;;5027721;28;20025;-79
2021/12/21 06:27:48;;;;;;;8.80;2.88;;;0.40;99.90;;;;;;5039200;28;20029;-83
2021/12/21 06:30:14;;;;;;;12.98;3.78;;;0.50;99.90;;;;;;5046657;28;20034;-79
2021/12/21 06:32:40;;;;;;;8.07;3.17;;;0.50;99.90;;;;;;5034245;28;20026;-80
2021/12/21 06:35:07;;;;;;;7.30;2.83;;;0.50;99.90;;;;;;5022088;28;20040;-79
2021/12/21 06:37:33;;;;;;;9.05;3.40;;;0.40;99.90;;;;;;5020325;28;20037;-81
2021/12/21 06:39:59;;;;;;;11.75;3.28;;;;;;;;;;5024124;28;20033;-78
2021/12/21 06:42:26;;;;;;;8.20;3.00;;;;;;;;;;5022569;28;20450;-79
2021/12/21 06:44:56;;;;;;;9.73;3.42;;;0.40;99.90;;;;;;5026522;28;20070;-80
2021/12/21 06:52:52;;;;;;;12.73;3.55;;;;;;;;;;5028948;28;20032;-79
2021/12/21 06:55:18;;;;;;;7.38;3.00;;;0.10;99.90;;;;;;5023291;28;20102;-80
2021/12/21 06:57:43;;;;;;;9.50;3.28;;;0.20;99.90;;;;;;5027774;28;20034;-80
2021/12/21 07:00:16;;;;;;;9.40;3.88;;;0.20;99.90;;;;;;5024679;28;20453;-80
2021/12/21 07:02:42;;;;;;;14.20;4.07;;;0.20;99.90;;;;;;5024883;28;20132;-82
2021/12/21 07:05:10;;;;;;;11.40;4.97;;;0.20;99.90;;;;;;5025106;28;20127;-81
2021/12/21 07:07:36;;;;;;;7.82;3.88;;;0.10;99.90;;;;;;5021437;28;20025;-84
2021/12/21 07:10:07;;;;;;;9.73;4.40;;;0.10;99.90;;;;;;5020073;28;20124;-80
2021/12/21 07:20:29;;;;;;;11.43;4.80;;;-2.40;99.90;;;;;;5020012;28;20653;-80
2021/12/21 07:22:55;;;;;;;10.13;4.82;;;0.00;99.90;;;;;;5021184;28;20499;-80
2021/12/21 07:25:21;;;;;;;10.32;4.20;;;0.00;99.90;;;;;;5025613;28;20033;-80
2021/12/21 07:27:47;;;;;;;12.20;4.70;;;;;;;;;;5024080;28;20033;-79
2021/12/21 07:30:13;;;;;;;15.02;4.63;;;;;;;;;;5040419;28;20040;-80
2021/12/21 07:32:39;;;;;;;10.60;4.70;;;0.00;99.90;;;;;;5026535;28;20029;-81
2021/12/21 07:35:05;;;;;;;13.32;4.70;;;;;;;;;;5020022;28;20033;-81
2021/12/21 07:37:31;;;;;;;10.20;4.50;;;;;;;;;;5026385;28;20033;-79
2021/12/21 07:39:57;;;;;;;9.55;4.40;;;;;;;;;;5021151;28;20069;-79
2021/12/21 07:43:51;;;;;;;9.77;3.97;;;;;;;;;;5128366;27;20443;-85
2021/12/21 07:46:17;;;;;;;12.57;4.57;;;;;;;;;;5104097;28;20100;-81
2021/12/21 07:48:43;;;;;;;14.90;5.40;;;;;;;;;;5103799;28;20012;-83
2021/12/21 07:51:09;;;;;;;10.98;4.53;;;;;;;;;;5105458;28;20042;-83
2021/12/21 07:53:36;;;;;;;12.30;5.00;;;;;;;;;;5103645;28;20031;-82
2021/12/21 07:56:02;;;;;;;10.55;4.47;;;;;;;;;;5102033;28;20024;-85
2021/12/21 07:58:32;;;;;;;7.97;4.47;;;0.30;99.90;;;;;;5099105;28;20043;-81
2021/12/21 08:01:00;;;;;;;10.77;4.22;;;0.20;99.90;;;;;;5102541;28;20034;-82
2021/12/21 08:03:26;;;;;;;10.77;4.80;;;0.10;99.90;;;;;;5087015;28;20028;-81
2021/12/21 08:05:55;;;;;;;11.40;4.80;;;0.10;99.90;;;;;;5091258;28;20092;-80
2021/12/21 08:08:26;;;;;;;9.88;4.68;;;;;;;;;;5092139;28;20291;-79
2021/12/21 08:10:56;;;;;;;10.77;4.53;;;;;;;;;;5091127;28;20097;-82
2021/12/21 08:13:22;;;;;;;13.43;5.28;;;;;;;;;;5089635;28;20056;-83
2021/12/21 08:15:48;;;;;;;13.15;4.50;;;;;;;;;;5081669;28;20374;-83
2021/12/21 08:18:15;;;;;;;11.05;5.03;;;;;;;;;;5082030;28;20049;-82
2021/12/21 08:20:41;;;;;;;11.13;4.25;;;0.10;99.90;;;;;;5084404;28;20381;-81
2021/12/21 08:23:08;;;;;;;9.85;4.50;;;0.10;99.90;;;;;;5081950;28;20028;-81
2021/12/21 08:25:35;;;;;;;11.90;4.57;;;0.00;99.90;;;;;;5079443;28;20089;-80
2021/12/21 08:28:06;;;;;;;13.77;5.35;;;;;;;;;;5083639;28;20034;-80
2021/12/21 08:30:33;;;;;;;13.93;5.05;;;0.10;99.90;;;;;;5080586;28;20033;-80
2021/12/21 08:32:59;;;;;;;12.55;4.40;;;0.10;99.90;;;;;;5079594;28;20431;-83
2021/12/21 08:35:25;;;;;;;10.85;4.50;;;;;;;;;;5081773;28;20036;-82
2021/12/21 08:37:53;;;;;;;12.55;3.88;;;;;;;;;;5082738;28;20020;-81
2021/12/21 08:40:20;;;;;;;10.32;4.63;;;0.20;99.90;;;;;;5087771;28;20524;-81
2021/12/21 08:42:49;;;;;;;12.30;3.72;;;;;;;;;;5084933;28;20324;-82
2021/12/21 08:45:15;;;;;;;10.38;3.95;;;;;;;;;;5080117;28;20597;-84
2021/12/21 08:47:41;;;;;;;8.30;3.30;;;;;;;;;;5084361;28;20039;-83
2021/12/21 08:50:09;;;;;;;9.70;4.43;;;0.40;99.90;;;;;;5081656;28;20039;-84
2021/12/21 08:52:36;;;;;;;10.95;4.40;;;;;;;;;;5083814;28;20044;-82
2021/12/21 08:55:04;;;;;;;13.27;4.63;;;0.30;99.90;;;;;;5074929;28;20028;-83
2021/12/21 08:57:30;;;;;;;11.02;4.10;;;;;;;;;;5083954;28;20029;-82
2021/12/21 08:59:56;;;;;;;12.95;4.70;;;;;;;;;;5069665;28;20060;-83
2021/12/21 09:02:23;;;;;;;12.25;4.18;;;;;;;;;;5070040;28;20024;-81
2021/12/21 09:04:49;;;;;;;10.30;4.20;;;;;;;;;;5070932;28;20032;-81
2021/12/21 09:07:15;;;;;;;10.55;4.43;;;;;;;;;;5068837;28;20104;-80
2021/12/21 09:09:41;;;;;;;12.13;4.60;;;;;;;;;;5069420;28;20078;-81
2021/12/21 09:12:08;;;;;;;11.73;4.63;;;;;;;;;;5072916;28;20387;-82
2021/12/21 09:14:34;;;;;;;11.38;4.90;;;;;;;;;;5069079;28;20050;-82
2021/12/21 09:17:00;;;;;;;12.60;5.53;;;;;;;;;;5068389;28;20116;-82
2021/12/21 09:19:26;;;;;;;10.88;4.65;;;;;;;;;;5071051;28;20034;-80
2021/12/21 09:21:52;;;;;;;13.40;5.28;;;;;;;;;;5072151;28;20029;-81
2021/12/21 09:24:19;;;;;;;14.45;4.80;;;;;;;;;;5072990;28;20032;-80
2021/12/21 09:26:45;;;;;;;13.20;4.50;;;;;;;;;;5069099;28;20032;-81
2021/12/21 09:29:11;;;;;;;9.48;4.13;;;;;;;;;;5074096;28;20036;-82
2021/12/21 09:31:37;;;;;;;12.43;4.05;;;;;;;;;;5070350;28;20033;-82
2021/12/21 09:34:03;;;;;;;10.23;4.28;;;;;;;;;;5067725;28;20074;-82
2021/12/21 09:36:30;;;;;;;10.32;3.85;;;;;;;;;;5070039;28;20098;-83
2021/12/21 09:38:57;;;;;;;7.82;4.03;;;0.90;99.90;;;;;;5087444;28;20050;-81
2021/12/21 09:41:23;;;;;;;11.98;4.00;;;0.80;99.90;;;;;;5075670;28;20499;-84
2021/12/21 09:43:50;;;;;;;9.85;3.75;;;;;;;;;;5075956;28;20024;-83
2021/12/21 09:46:16;;;;;;;12.48;5.07;;;1.10;99.90;;;;;;5074593;28;20033;-81
2021/12/21 09:48:44;;;;;;;9.23;4.38;;;1.10;99.90;;;;;;5077856;28;20044;-82
2021/12/21 09:51:10;;;;;;;12.27;4.53;;;;;;;;;;5073454;28;20029;-82
2021/12/21 09:53:36;;;;;;;12.02;3.92;;;1.20;99.90;;;;;;5076172;28;20036;-82
2021/12/21 09:56:04;;;;;;;7.97;3.42;;;1.30;99.90;;;;;;5078390;28;20088;-80
2021/12/21 09:58:30;;;;;;;9.50;3.67;;;1.50;99.90;;;;;;5075683;28;20066;-83
2021/12/21 10:00:56;;;;;;;10.05;3.78;;;;;;;;;;5078676;28;20021;-81
2021/12/21 10:03:22;;;;;;;7.85;2.95;;;;;;;;;;5080532;28;20055;-84
2021/12/21 10:05:47;;;;;;;8.98;3.40;;;4.10;99.90;;;;;;5067733;28;20033;-84
2021/12/21 10:08:15;;;;;;;9.50;3.85;;;;;;;;;;5072128;28;20378;-79
2021/12/21 10:10:52;;;;;;;8.20;4.00;;;;;;;;;;5068123;28;20055;-81
2021/12/21 10:13:20;;;;;;;9.32;3.40;;;1.80;99.90;;;;;;5094908;28;20013;-83
2021/12/21 10:15:49;;;;;;;9.60;3.38;;;1.90;99.90;;;;;;5081857;28;20355;-83
2021/12/21 10:18:22;;;;;;;8.73;3.60;;;;;;;;;;5092390;28;20032;-85
2021/12/21 10:20:48;;;;;;;9.63;3.60;;;;;;;;;;5079862;28;20059;-82
2021/12/21 10:23:17;;;;;;;10.27;3.90;;;1.90;99.90;;;;;;5084184;28;20033;-83
2021/12/21 10:25:55;;;;;;;13.80;3.85;;;1.90;99.90;;;;;;5086312;28;20041;-87
2021/12/21 10:28:34;;;;;;;10.80;3.97;;;;;;;;;;5086689;28;20064;-85
2021/12/21 10:31:20;;;;;;;13.13;3.75;;;2.10;99.90;;;;;;5079521;28;20035;-81
2021/12/21 10:33:46;;;;;;;9.27;3.83;;;2.00;99.90;;;;;;5076091;28;20111;-82
2021/12/21 10:36:15;;;;;;;8.68;3.55;;;2.10;99.90;;;;;;5072767;28;20044;-80
2021/12/21 10:38:50;;;;;;;10.02;3.30;;;5.60;99.90;;;;;;5071767;28;20273;-81
2021/12/21 10:41:19;;;;;;;10.10;3.55;;;2.10;99.90;;;;;;5070602;28;20024;-84
2021/12/21 10:44:14;;;;;;;11.00;3.30;;;3.80;99.90;;;;;;5073754;28;20035;-81
2021/12/21 10:46:52;;;;;;;6.97;2.97;;;2.30;99.90;;;;;;5069219;28;20032;-81
2021/12/21 10:49:21;;;;;;;11.05;3.88;;;4.10;99.90;;;;;;5073730;28;20032;-80
2021/12/21 10:52:00;;;;;;;7.88;3.70;;;3.70;99.90;;;;;;5075073;28;20090;-83
2021/12/21 10:54:44;;;;;;;7.55;3.25;;;2.40;99.90;;;;;;5066717;28;20035;-82
2021/12/21 10:57:22;;;;;;;9.25;3.42;;;2.40;99.90;;;;;;5063325;28;20032;-81
2021/12/21 10:59:53;;;;;;;7.88;3.28;;;2.60;99.90;;;;;;5082146;28;20255;-83
2021/12/21 11:02:32;;;;;;;6.40;3.08;;;2.60;99.90;;;;;;5074512;28;20062;-81
2021/12/21 11:05:10;;;;;;;6.15;2.97;;;2.90;99.90;;;;;;5068918;28;20039;-82
2021/12/21 11:10:25;;;;;;;9.55;3.08;;;2.90;99.90;;;;;;5069786;28;20047;-80
2021/12/21 11:12:58;;;;;;;8.60;2.72;;;2.90;99.90;;;;;;5067443;28;20043;-82
2021/12/21 11:15:29;;;;;;;7.90;3.28;;;4.40;99.90;;;;;;5078758;28;20033;-80
2021/12/21 11:18:13;;;;;;;8.57;3.22;;;3.20;99.90;;;;;;5067418;28;20039;-82
2021/12/21 11:20:41;;;;;;;9.18;3.20;;;3.00;99.90;;;;;;5071084;28;20027;-82
2021/12/21 11:23:07;;;;;;;8.32;3.10;;;2.90;99.90;;;;;;5067264;28;20104;-82
2021/12/21 11:25:34;;;;;;;8.55;3.22;;;3.00;99.90;;;;;;5066187;28;20045;-82
2021/12/21 11:28:02;;;;;;;8.32;2.97;;;2.90;99.90;;;;;;5070779;28;20500;-80
2021/12/21 11:30:29;;;;;;;8.05;2.90;;;2.90;99.90;;;;;;5068172;28;20389;-82
2021/12/21 11:32:57;;;;;;;9.63;3.17;;;3.00;99.90;;;;;;5066839;28;20073;-80
2021/12/21 11:38:02;;;;;;;7.68;2.85;;;3.00;99.90;;;;;;5062111;28;20095;-82
2021/12/21 11:40:33;;;;;;;6.95;2.70;;;3.00;99.90;;;;;;5065614;28;20428;-83
2021/12/21 11:43:22;;;;;;;5.78;2.58;;;3.10;99.90;;;;;;5068477;28;20040;-82
2021/12/21 11:45:57;;;;;;;7.32;2.60;;;3.10;99.90;;;;;;5079128;28;20070;-82
2021/12/21 11:48:30;;;;;;;7.68;3.10;;;4.10;99.90;;;;;;5066493;28;20035;-81
2021/12/21 11:51:11;;;;;;;7.43;2.50;;;3.10;99.90;;;;;;5067871;28;20031;-80
2021/12/21 11:53:38;;;;;;;6.82;2.38;;;;;;;;;;5069488;28;20041;-82
2021/12/21 11:56:05;;;;;;;6.85;2.92;;;3.10;99.90;;;;;;5066540;28;20025;-83
2021/12/21 11:58:42;;;;;;;6.18;2.55;;;4.00;99.90;;;;;;5071173;28;20028;-80
2021/12/21 12:01:23;;;;;;;8.00;2.55;;;3.20;99.90;;;;;;5060471;28;20029;-81
2021/12/21 12:04:03;;;;;;;;;;;3.30;99.90;;;;;;5067698;28;20043;-82
2021/12/21 12:06:49;;;;;;;5.20;2.43;;;3.60;99.90;;;;;;5064698;28;20003;-83
2021/12/21 12:09:25;;;;;;;7.10;2.78;;;3.60;99.90;;;;;;5066287;28;20362;-83
2021/12/21 12:12:03;;;;;;;7.70;2.72;;;3.70;99.90;;;;;;5069984;28;20036;-82
2021/12/21 12:14:30;;;;;;;9.70;3.00;;;3.60;99.90;;;;;;5063093;28;20396;-81
2021/12/21 12:16:58;;;;;;;7.15;2.60;;;3.50;99.90;;;;;;5065986;28;20115;-83
2021/12/21 12:19:31;;;;;;;7.82;2.80;;;3.60;99.90;;;;;;5075897;28;20021;-82
2021/12/21 12:22:09;;;;;;;8.05;2.80;;;3.60;99.90;;;;;;5067823;28;20032;-85
2021/12/21 12:24:42;;;;;;;8.98;2.47;;;3.60;99.90;;;;;;5064985;28;20031;-83
2021/12/21 12:27:20;;;;;;;5.90;2.60;;;3.70;99.90;;;;;;5068308;28;20025;-83
2021/12/21 12:29:47;;;;;;;6.63;2.70;;;3.60;99.90;;;;;;5068427;28;20035;-82
2021/12/21 12:32:14;;;;;;;5.35;3.33;;;3.60;99.90;;;;;;5070779;28;20032;-82
2021/12/21 12:34:42;;;;;;;7.88;2.67;;;3.60;99.90;;;;;;5069980;28;20504;-83
2021/12/21 12:37:21;;;;;;;8.77;3.47;;;3.60;99.90;;;;;;5072858;28;20660;-81
2021/12/21 12:39:50;;;;;;;4.28;2.22;;;3.60;99.90;;;;;;5065744;28;20024;-82
2021/12/21 12:42:28;;;;;;;5.88;2.70;;;3.70;99.90;;;;;;5081637;28;20033;-87
2021/12/21 12:45:15;;;;;;;6.90;2.83;;;3.80;99.90;;;;;;5081671;28;20428;-83
2021/12/21 12:47:45;;;;;;;7.15;2.40;;;3.70;99.90;;;;;;5064310;28;20028;-84
2021/12/21 12:50:20;;;;;;;6.88;2.60;;;3.70;99.90;;;;;;5069314;28;20108;-81
2021/12/21 12:52:52;;;;;;;7.25;2.85;;;5.90;99.90;;;;;;5066765;28;20423;-80
2021/12/21 12:55:18;;;;;;;7.32;2.50;;;3.70;99.90;;;;;;5073543;28;20111;-82
2021/12/21 12:57:58;;;;;;;7.15;2.70;;;3.80;99.90;;;;;;5063667;28;20016;-81
2021/12/21 13:00:23;;;;;;;5.40;2.70;;;3.80;99.90;;;;;;5076200;28;20024;-81
2021/12/21 13:03:01;;;;;;;5.90;2.47;;;3.80;99.90;;;;;;5073404;28;20029;-82
2021/12/21 13:05:39;;;;;;;6.25;2.83;;;3.90;99.90;;;;;;5070582;28;20028;-81
2021/12/21 13:08:14;;;;;;;5.82;2.40;;;3.90;99.90;;;;;;5071944;28;20025;-83
2021/12/21 13:10:43;;;;;;;4.10;2.00;;;3.90;99.90;;;;;;5073373;28;20036;-79
2021/12/21 13:13:08;;;;;;;5.13;2.17;;;3.90;99.90;;;;;;5068952;28;20031;-80
2021/12/21 13:15:41;;;;;;;11.02;2.45;;;4.10;99.90;;;;;;5071222;28;20028;-79
2021/12/21 13:18:09;;;;;;;8.55;2.60;;;4.00;99.90;;;;;;5087434;28;20033;-82
2021/12/21 13:20:37;;;;;;;7.85;2.70;;;4.00;99.90;;;;;;5070195;28;20504;-81
2021/12/21 13:23:32;;;;;;;6.45;2.72;;;4.10;99.90;;;;;;5066150;28;20041;-80
2021/12/21 13:26:09;;;;;;;9.80;3.38;;;4.70;99.90;;;;;;5060505;28;20107;-80
2021/12/21 13:28:49;;;;;;;10.25;2.60;;;4.00;99.90;;;;;;5070317;28;20029;-81
2021/12/21 13:31:18;;;;;;;6.00;2.67;;;3.90;99.90;;;;;;5065154;28;20111;-85
2021/12/21 13:33:44;;;;;;;6.43;2.97;;;;;;;;;;5076779;28;20035;-82
2021/12/21 13:36:10;;;;;;;6.35;2.65;;;;;;;;;;5071390;28;20024;-82
2021/12/21 13:38:37;;;;;;;7.85;2.78;;;3.90;99.90;;;;;;5075164;28;20029;-78
2021/12/21 13:41:05;;;;;;;8.55;2.70;;;3.90;99.90;;;;;;5070720;28;20059;-79
2021/12/21 13:43:31;;;;;;;7.03;2.63;;;;;;;;;;5075386;28;20105;-79
2021/12/21 13:46:06;;;;;;;7.07;3.15;;;3.90;99.90;;;;;;5068937;28;20036;-80
2021/12/21 13:48:33;;;;;;;10.77;3.28;;;3.90;99.90;;;;;;5058800;28;20043;-80
2021/12/21 13:51:10;;;;;;;6.78;2.65;;;3.90;99.90;;;;;;5060786;28;20594;-78
2021/12/21 13:53:48;;;;;;;8.48;2.65;;;4.00;99.90;;;;;;5061069;28;20573;-80
2021/12/21 13:56:20;;;;;;;7.93;2.70;;;4.00;99.90;;;;;;5065054;28;20025;-83
2021/12/21 13:58:46;;;;;;;7.75;3.10;;;4.00;99.90;;;;;;5079299;28;20029;-84
2021/12/21 14:01:25;;;;;;;6.15;2.38;;;3.90;99.90;;;;;;5077990;28;20024;-83
2021/12/21 14:03:58;;;;;;;6.50;2.60;;;3.90;99.90;;;;;;5070881;28;20029;-83
2021/12/21 14:06:25;;;;;;;9.88;3.88;;;3.90;99.90;;;;;;5071158;28;20033;-82
2021/12/21 14:08:56;;;;;;;8.40;2.50;;;4.00;99.90;;;;;;5075565;28;20032;-82
2021/12/21 14:11:30;;;;;;;7.07;2.60;;;4.10;99.90;;;;;;5079730;28;20028;-80
2021/12/21 14:13:58;;;;;;;4.53;2.30;;;4.20;99.90;;;;;;5079129;28;20047;-81
2021/12/21 14:16:26;;;;;;;6.47;2.60;;;4.10;99.90;;;;;;5080824;28;20088;-83
2021/12/21 14:18:54;;;;;;;8.38;2.60;;;4.10;99.90;;;;;;5077364;28;20404;-83
2021/12/21 14:21:37;;;;;;;8.65;2.40;;;4.30;99.90;;;;;;5094769;28;20021;-83
2021/12/21 14:24:10;;;;;;;6.30;2.40;;;4.60;99.90;;;;;;5079678;28;20017;-80
2021/12/21 14:26:41;;;;;;;4.50;2.15;;;3.90;99.90;;;;;;5073820;28;20024;-85
2021/12/21 14:29:10;;;;;;;5.68;2.20;;;4.00;99.90;;;;;;5078665;28;20035;-83
2021/12/21 14:31:59;;;;;;;4.43;2.25;;;4.10;99.90;;;;;;5081606;28;20028;-82
2021/12/21 14:34:33;;;;;;;6.28;2.30;;;4.10;99.90;;;;;;5077275;28;20041;-86
2021/12/21 14:36:59;;;;;;;5.35;2.00;;;4.00;99.90;;;;;;5080557;28;20055;-85
2021/12/21 14:39:30;;;;;;;6.40;2.40;;;4.00;99.90;;;;;;5079372;28;20515;-85
2021/12/21 14:42:00;;;;;;;6.22;2.40;;;4.00;99.90;;;;;;5068590;28;20029;-83
2021/12/21 14:44:28;;;;;;;5.63;2.13;;;4.40;99.90;;;;;;5078036;28;20042;-82
2021/12/21 14:47:07;;;;;;;4.68;2.63;;;3.50;99.90;;;;;;5073258;28;20028;-83
2021/12/21 14:49:35;;;;;;;5.07;2.78;;;3.80;99.90;;;;;;5070682;28;20290;-81